Time;durP1;ratioP1;P1;durP2;ratioP2;P2;SDS_P1;SDS_P2;PMS_P1;PMS_P2;Temp;Humidity;BMP_temperature;BMP_pressure;BME280_temperature;BME280_humidity;BME280_pressure;Samples;Min_cycle;Max_cycle;Signal;HPM_P1;HPM_P2
2021/05/17 00:01:45;;;;;;;0.40;0.20;;;;;;;;;;10527234;28;20220;-74
2021/05/17 00:06:48;;;;;;;0.20;0.20;;;;;;;;;;10522903;28;20218;-73
2021/05/17 00:11:51;;;;;;;1.77;0.23;;;;;;;;;;10522105;28;20599;-74
2021/05/17 00:16:54;;;;;;;0.30;0.30;;;;;;;;;;10527601;28;20253;-74
2021/05/17 00:21:57;;;;;;;0.40;0.30;;;;;;;;;;10512618;28;20310;-76
2021/05/17 00:26:59;;;;;;;0.73;0.37;;;;;;;;;;10533463;28;20655;-74
2021/05/17 00:32:04;;;;;;;0.50;0.33;;;;;;;;;;10518888;28;20245;-73
2021/05/17 00:37:07;;;;;;;0.40;0.40;;;;;;;;;;10525282;28;20218;-73
2021/05/17 00:42:10;;;;;;;1.23;0.50;;;;;;;;;;10512127;28;20212;-73
2021/05/17 00:47:15;;;;;;;0.40;0.30;;;;;;;;;;10522930;28;20211;-74
2021/05/17 00:52:18;;;;;;;0.63;0.40;;;;;;;;;;10524848;28;20234;-75
2021/05/17 00:57:21;;;;;;;0.30;0.30;;;;;;;;;;10521867;28;20188;-76
2021/05/17 01:02:24;;;;;;;0.53;0.30;;;;;;;;;;10521942;28;20666;-74
2021/05/17 01:07:27;;;;;;;0.90;0.47;;;;;;;;;;10521637;28;20203;-75
2021/05/17 01:12:32;;;;;;;0.40;0.37;;;;;;;;;;10504009;28;20298;-75
2021/05/17 01:17:35;;;;;;;1.30;0.67;;;;;;;;;;10526676;28;20192;-74
2021/05/17 01:22:47;;;;;;;0.97;0.30;;;;;;;;;;10531478;28;20226;-74
2021/05/17 01:27:51;;;;;;;2.03;0.60;;;;;;;;;;10523384;28;20211;-74
2021/05/17 01:32:55;;;;;;;1.03;0.40;;;;;;;;;;10522763;28;20277;-75
2021/05/17 01:37:58;;;;;;;2.03;0.50;;;;;;;;;;10518911;28;20252;-76
2021/05/17 01:43:01;;;;;;;1.70;0.50;;;;;;;;;;10519770;28;20306;-75
2021/05/17 01:48:04;;;;;;;0.30;0.30;;;;;;;;;;10522797;28;20235;-74
2021/05/17 01:53:07;;;;;;;1.70;0.60;;;;;;;;;;10518282;28;20209;-74
2021/05/17 01:58:11;;;;;;;1.20;0.73;;;;;;;;;;10525832;28;20192;-72
2021/05/17 02:03:14;;;;;;;2.03;0.60;;;;;;;;;;10503084;28;20231;-74
2021/05/17 02:08:17;;;;;;;0.30;0.30;;;;;;;;;;10508709;28;20607;-74
2021/05/17 02:13:20;;;;;;;2.63;0.60;;;;;;;;;;10521522;28;20345;-74
2021/05/17 02:18:23;;;;;;;1.27;0.37;;;;;;;;;;10518379;28;20192;-74
2021/05/17 02:23:25;;;;;;;2.37;0.67;;;;;;;;;;10527853;28;20215;-75
2021/05/17 02:28:29;;;;;;;0.50;0.43;;;;;;;;;;10521400;28;20234;-74
2021/05/17 02:33:32;;;;;;;1.30;0.57;;;;;;;;;;10526938;28;20315;-75
2021/05/17 02:38:34;;;;;;;1.23;0.60;;;;;;;;;;10538992;28;20229;-74
2021/05/17 02:43:38;;;;;;;1.20;0.60;;;;;;;;;;10535678;28;20357;-75
2021/05/17 02:48:41;;;;;;;0.97;0.47;;;;;;;;;;10519546;28;20233;-74
2021/05/17 02:53:56;;;;;;;0.73;0.50;;;;;;;;;;10508361;28;20269;-73
2021/05/17 02:59:01;;;;;;;1.70;0.40;;;;;;;;;;10517186;28;20190;-75
2021/05/17 03:04:07;;;;;;;2.43;0.50;;;;;;;;;;10503720;28;20211;-75
2021/05/17 03:09:10;;;;;;;0.40;0.37;;;;;;;;;;10518435;28;20556;-74
2021/05/17 03:14:14;;;;;;;1.13;0.30;;;;;;;;;;10509999;28;20199;-74
2021/05/17 03:19:18;;;;;;;0.30;0.30;;;;;;;;;;10530427;28;20199;-74
2021/05/17 03:24:20;;;;;;;0.83;0.30;;;;;;;;;;10530938;28;20204;-74
2021/05/17 03:29:23;;;;;;;1.17;0.50;;;;;;;;;;10530377;28;20238;-74
2021/05/17 03:34:26;;;;;;;0.93;0.40;;;;;;;;;;10521683;28;20606;-74
2021/05/17 03:39:29;;;;;;;0.77;0.33;;;;;;;;;;10526853;28;20212;-74
2021/05/17 03:44:32;;;;;;;0.37;0.37;;;;;;;;;;10520398;28;20196;-74
2021/05/17 03:49:34;;;;;;;0.10;0.10;;;;;;;;;;10521245;28;20642;-74
2021/05/17 03:54:37;;;;;;;0.80;0.30;;;;;;;;;;10520526;28;20234;-75
2021/05/17 03:59:42;;;;;;;1.17;0.67;;;;;;;;;;10512825;28;20212;-75
2021/05/17 04:04:53;;;;;;;0.93;0.40;;;;;;;;;;10525671;28;20192;-74
2021/05/17 04:15:17;;;;;;;1.40;0.60;;;;;;;;;;10523762;28;20222;-74
2021/05/17 04:20:20;;;;;;;0.90;0.40;;;;;;;;;;10526100;28;20228;-74
2021/05/17 04:25:23;;;;;;;2.33;0.70;;;;;;;;;;10520696;28;20214;-75
2021/05/17 04:30:27;;;;;;;3.40;0.60;;;;;;;;;;10525425;28;20219;-74
2021/05/17 04:35:29;;;;;;;1.13;0.60;;;;;;;;;;10529786;28;20180;-73
2021/05/17 04:40:32;;;;;;;1.73;0.83;;;;;;;;;;10527651;28;20270;-74
2021/05/17 04:45:35;;;;;;;2.27;0.80;;;;;;;;;;10523765;28;20517;-73
2021/05/17 04:50:37;;;;;;;2.23;0.50;;;;;;;;;;10533344;28;20286;-73
2021/05/17 04:55:39;;;;;;;2.20;0.70;;;;;;;;;;10516991;28;20292;-73
2021/05/17 05:00:42;;;;;;;1.60;0.63;;;;;;;;;;10514603;28;20342;-72
2021/05/17 05:05:44;;;;;;;1.63;0.60;;;;;;;;;;10503180;28;20759;-73
2021/05/17 05:10:47;;;;;;;5.97;0.87;;;;;;;;;;10513577;28;20216;-71
2021/05/17 05:15:52;;;;;;;1.17;0.50;;;;;;;;;;10511972;28;20265;-73
2021/05/17 05:20:54;;;;;;;2.97;0.80;;;;;;;;;;10512403;28;20208;-72
2021/05/17 05:31:20;;;;;;;4.07;0.87;;;;;;;;;;10490107;28;20237;-72
2021/05/17 05:36:22;;;;;;;1.17;0.63;;;;;;;;;;10514095;28;20598;-73
2021/05/17 05:41:24;;;;;;;4.00;0.90;;;;;;;;;;10497929;28;20263;-73
2021/05/17 05:46:27;;;;;;;4.53;0.97;;;;;;;;;;10504274;28;20204;-72
2021/05/17 05:51:30;;;;;;;2.43;0.67;;;;;;;;;;10505694;28;20233;-73
2021/05/17 05:56:32;;;;;;;2.33;0.80;;;;;;;;;;10509908;28;20200;-72
2021/05/17 06:01:35;;;;;;;5.17;1.00;;;;;;;;;;10523200;28;20220;-72
2021/05/17 06:06:37;;;;;;;5.00;0.97;;;;;;;;;;10515468;28;20203;-72
2021/05/17 06:11:39;;;;;;;2.10;0.90;;;;;;;;;;10517023;28;20291;-73
2021/05/17 06:16:42;;;;;;;5.17;1.00;;;;;;;;;;10518004;28;20267;-73
2021/05/17 06:21:45;;;;;;;4.17;1.20;;;;;;;;;;10522049;28;20582;-73
2021/05/17 06:26:47;;;;;;;4.80;1.17;;;;;;;;;;10519480;28;20189;-73
2021/05/17 06:31:51;;;;;;;4.83;1.10;;;;;;;;;;10526953;28;20252;-73
2021/05/17 06:36:54;;;;;;;2.83;0.87;;;;;;;;;;10519772;28;20196;-73
2021/05/17 06:41:56;;;;;;;2.33;0.73;;;;;;;;;;10511153;28;20640;-74
2021/05/17 06:46:59;;;;;;;5.20;1.07;;;;;;;;;;10517737;28;20196;-73
2021/05/17 06:52:02;;;;;;;4.67;1.07;;;;;;;;;;10510820;28;20215;-72
2021/05/17 06:57:09;;;;;;;6.07;1.30;;;;;;;;;;10517899;28;20662;-71
2021/05/17 07:02:17;;;;;;;3.07;0.90;;;;;;;;;;10512598;28;20283;-73
2021/05/17 07:07:23;;;;;;;4.37;1.13;;;;;;;;;;10520983;28;20219;-71
2021/05/17 07:12:25;;;;;;;3.30;0.87;;;;;;;;;;10518032;28;20227;-72
2021/05/17 07:17:29;;;;;;;3.20;0.33;;;;;;;;;;10523152;28;20204;-70
2021/05/17 07:27:51;;;;;;;2.70;1.10;;;;;;;;;;10525108;28;20885;-70
2021/05/17 07:32:54;;;;;;;2.83;1.00;;;;;;;;;;10523932;28;20215;-70
2021/05/17 07:37:56;;;;;;;2.90;0.90;;;;;;;;;;10518918;28;20261;-70
2021/05/17 07:42:58;;;;;;;1.47;0.77;;;;;;;;;;10517146;28;20616;-70
2021/05/17 07:48:20;;;;;;;1.87;1.07;;;;;;;;;;10525261;28;20215;-69
2021/05/17 07:53:22;;;;;;;3.40;0.93;;;;;;;;;;10512032;28;20663;-71
2021/05/17 07:58:24;;;;;;;2.97;0.80;;;;;;;;;;10522712;28;20271;-71
2021/05/17 08:03:27;;;;;;;3.37;0.90;;;;;;;;;;10521603;28;20674;-72
2021/05/17 08:08:33;;;;;;;4.10;0.90;;;;;;;;;;10526532;28;20216;-71
2021/05/17 08:13:36;;;;;;;3.67;0.90;;;;;;;;;;10526534;28;20274;-71
2021/05/17 08:18:55;;;;;;;0.93;0.50;;;;;;;;;;10532407;28;20214;-71
2021/05/17 08:23:58;;;;;;;2.60;0.90;;;;;;;;;;10524381;28;20291;-71
2021/05/17 08:29:00;;;;;;;3.23;0.80;;;;;;;;;;10522673;28;20288;-70
2021/05/17 08:34:03;;;;;;;0.97;0.50;;;;;;;;;;10523723;28;20208;-71
2021/05/17 08:39:06;;;;;;;3.10;0.60;;;;;;;;;;10506227;28;20200;-72
2021/05/17 08:44:08;;;;;;;1.37;0.67;;;;;;;;;;10524912;28;20265;-71
2021/05/17 08:49:11;;;;;;;1.00;0.60;;;;;;;;;;10513533;28;20260;-69
2021/05/17 08:54:14;;;;;;;1.00;0.57;;;;;;;;;;10526351;28;20207;-71
2021/05/17 08:59:18;;;;;;;1.03;0.87;;;;;;;;;;10514010;28;20300;-71
2021/05/17 09:04:21;;;;;;;1.40;0.77;;;;;;;;;;10530111;28;20234;-70
2021/05/17 09:09:27;;;;;;;2.65;0.73;;;;;;;;;;10507506;28;20222;-72
2021/05/17 09:14:30;;;;;;;1.63;0.65;;;;;;;;;;10506706;28;20193;-72
2021/05/17 09:19:34;;;;;;;2.25;0.90;;;;;;;;;;10515575;28;20657;-72
2021/05/17 09:24:41;;;;;;;1.75;0.73;;;;;;;;;;10516954;28;20272;-72
2021/05/17 09:29:44;;;;;;;1.50;0.80;;;;;;;;;;10504361;28;20292;-71
2021/05/17 09:34:48;;;;;;;1.40;0.80;;;;;;;;;;10525791;28;20438;-70
2021/05/17 09:39:51;;;;;;;1.70;0.77;;;;;;;;;;10522170;28;20636;-71
2021/05/17 09:44:53;;;;;;;0.80;0.80;;;;;;;;;;10518070;28;20287;-72
2021/05/17 09:50:01;;;;;;;2.28;0.90;;;;;;;;;;10515056;28;20303;-72
2021/05/17 09:55:07;;;;;;;0.70;0.70;;;;;;;;;;10526717;28;20290;-74
2021/05/17 10:00:12;;;;;;;2.67;1.00;;;;;;;;;;10521930;28;20209;-73
2021/05/17 10:05:16;;;;;;;1.65;0.73;;;;;;;;;;10525562;28;20241;-72
2021/05/17 10:10:20;;;;;;;0.70;0.50;;;;;;;;;;10518580;28;20247;-70
2021/05/17 10:15:23;;;;;;;3.00;0.80;;;;;;;;;;10515150;28;20732;-71
2021/05/17 10:20:44;;;;;;;0.75;0.60;;;;;;;;;;10502277;28;20557;-71
2021/05/17 10:25:46;;;;;;;1.52;0.90;;;;;;;;;;10509867;28;20193;-71
2021/05/17 10:30:48;;;;;;;1.70;1.05;;;;;;;;;;10524789;28;20216;-72
2021/05/17 10:35:52;;;;;;;1.65;0.80;;;;;;;;;;10523428;28;20618;-71
2021/05/17 10:40:59;;;;;;;2.05;0.70;;;;;;;;;;10524232;28;20212;-72
2021/05/17 10:51:30;;;;;;;3.50;0.93;;;;;;;;;;10505246;28;20235;-70
2021/05/17 10:56:47;;;;;;;2.03;1.10;;;;;;;;;;10503694;28;20207;-71
2021/05/17 11:01:53;;;;;;;1.40;0.85;;;;;;;;;;10510204;28;20215;-72
2021/05/17 11:07:12;;;;;;;2.78;1.42;;;;;;;;;;10530324;28;20188;-71
2021/05/17 11:12:44;;;;;;;2.20;1.00;;;;;;;;;;10517901;28;20535;-71
2021/05/17 11:18:20;;;;;;;1.38;0.75;;;;;;;;;;10526255;28;20283;-71
2021/05/17 11:23:41;;;;;;;0.77;0.60;;;;;;;;;;10508974;28;20752;-71
2021/05/17 11:28:57;;;;;;;0.70;0.60;;;;;;;;;;10515905;28;20196;-72
2021/05/17 11:34:05;;;;;;;2.35;0.80;;;;;;;;;;10515887;28;20305;-71
2021/05/17 11:39:14;;;;;;;1.07;0.50;;;;;;;;;;10504880;28;20620;-71
2021/05/17 11:44:20;;;;;;;2.80;0.60;;;;;;;;;;10505028;28;20192;-71
2021/05/17 11:49:23;;;;;;;0.70;0.60;;;;;;;;;;10502099;28;20238;-70
2021/05/17 11:54:28;;;;;;;1.23;0.57;;;;;;;;;;10497255;28;20184;-72
2021/05/17 11:59:31;;;;;;;1.27;0.87;;;;;;;;;;10512136;28;20263;-70
2021/05/17 12:04:34;;;;;;;1.40;0.47;;;;;;;;;;10525154;28;20195;-70
2021/05/17 12:09:38;;;;;;;3.70;0.85;;;;;;;;;;10514298;28;20327;-70
2021/05/17 12:14:42;;;;;;;1.65;0.43;;;;;;;;;;10533363;28;20576;-72
2021/05/17 12:19:44;;;;;;;1.10;0.88;;;;;;;;;;10525281;28;20286;-70
2021/05/17 12:24:46;;;;;;;0.82;0.60;;;;;;;;;;10525220;28;20262;-72
2021/05/17 12:29:51;;;;;;;1.65;0.60;;;;;;;;;;10518986;28;20315;-71
2021/05/17 12:34:58;;;;;;;0.60;0.60;;;;;;;;;;10525963;28;20563;-71
2021/05/17 12:40:30;;;;;;;0.77;0.67;;;;;;;;;;10524452;28;20308;-72
2021/05/17 12:45:33;;;;;;;2.40;0.70;;;;;;;;;;10537691;28;20203;-70
2021/05/17 12:50:36;;;;;;;0.80;0.70;;;;;;;;;;10514041;28;20254;-70
2021/05/17 12:55:39;;;;;;;1.13;0.80;;;;;;;;;;10524131;28;20375;-71
2021/05/17 13:00:44;;;;;;;2.78;0.73;;;;;;;;;;10527486;28;20725;-71
2021/05/17 13:05:51;;;;;;;1.20;1.00;;;;;;;;;;10519619;28;20288;-70
2021/05/17 13:10:54;;;;;;;1.63;0.60;;;;;;;;;;10522545;28;20219;-70
2021/05/17 13:16:00;;;;;;;3.07;0.60;;;;;;;;;;10512824;28;20196;-72
2021/05/17 13:21:09;;;;;;;2.17;0.90;;;;;;;;;;10525182;28;20285;-72
2021/05/17 13:31:43;;;;;;;1.63;1.03;;;;;;;;;;10514942;28;20228;-70
2021/05/17 13:36:45;;;;;;;0.57;0.50;;;;;;;;;;10517892;28;20292;-70
2021/05/17 13:41:47;;;;;;;2.20;0.53;;;;;;;;;;10517127;28;20212;-70
2021/05/17 13:46:54;;;;;;;0.70;0.50;;;;;;;;;;10519532;28;20204;-70
2021/05/17 13:51:56;;;;;;;0.93;0.37;;;;;;;;;;10515320;28;20216;-69
2021/05/17 13:56:59;;;;;;;0.30;0.30;;;;;;;;;;10527786;28;20208;-72
2021/05/17 14:02:04;;;;;;;0.60;0.37;;;;;;;;;;10518101;28;20203;-71
2021/05/17 14:07:06;;;;;;;0.87;0.30;;;;;;;;;;10520311;28;20233;-72
2021/05/17 14:12:08;;;;;;;0.40;0.37;;;;;;;;;;10519079;28;20294;-70
2021/05/17 14:17:11;;;;;;;1.00;0.50;;;;;;;;;;10500062;28;20235;-72
2021/05/17 14:22:13;;;;;;;2.00;0.50;;;;;;;;;;10524997;28;20257;-72
2021/05/17 14:27:15;;;;;;;0.20;0.20;;;;;;;;;;10522928;28;20717;-72
2021/05/17 14:32:19;;;;;;;1.93;0.60;;;;;;;;;;10506699;28;20385;-73
2021/05/17 14:37:21;;;;;;;0.37;0.37;;;;;;;;;;10499795;28;20200;-72
2021/05/17 14:42:30;;;;;;;0.40;0.40;;;;;;;;;;10504474;28;20283;-72
2021/05/17 14:47:33;;;;;;;1.17;0.40;;;;;;;;;;10503250;28;20670;-72
2021/05/17 14:52:35;;;;;;;0.30;0.30;;;;;;;;;;10495747;28;20564;-71
2021/05/17 14:57:38;;;;;;;0.20;0.20;;;;;;;;;;10507283;28;20575;-72
2021/05/17 15:02:41;;;;;;;1.70;0.40;;;;;;;;;;10500477;28;20286;-73
2021/05/17 15:07:43;;;;;;;0.70;0.50;;;;;;;;;;10493221;28;20298;-71
2021/05/17 15:12:46;;;;;;;1.23;0.53;;;;;;;;;;10490381;28;20220;-72
2021/05/17 15:17:49;;;;;;;1.33;0.60;;;;;;;;;;10481350;28;20200;-69
2021/05/17 15:22:52;;;;;;;1.00;0.57;;;;;;;;;;10500358;28;20215;-70
2021/05/17 15:27:54;;;;;;;0.70;0.50;;;;;;;;;;10507133;28;20192;-68
2021/05/17 15:32:57;;;;;;;0.73;0.50;;;;;;;;;;10519025;28;20225;-71
2021/05/17 15:38:09;;;;;;;1.57;0.70;;;;;;;;;;10514085;28;20714;-70
2021/05/17 15:43:11;;;;;;;2.27;0.70;;;;;;;;;;10517130;28;20224;-71
2021/05/17 15:48:14;;;;;;;3.60;1.10;;;;;;;;;;10528654;28;20188;-70
2021/05/17 15:53:16;;;;;;;0.50;0.30;;;;;;;;;;10527802;28;20212;-70
2021/05/17 15:58:20;;;;;;;0.77;0.50;;;;;;;;;;10524528;28;20228;-74
2021/05/17 16:03:24;;;;;;;1.07;0.50;;;;;;;;;;10527590;28;20238;-69
2021/05/17 16:08:26;;;;;;;1.80;0.60;;;;;;;;;;10529811;28;20352;-73
2021/05/17 16:13:35;;;;;;;1.03;0.60;;;;;;;;;;10517474;28;20220;-73
2021/05/17 16:18:46;;;;;;;0.57;0.50;;;;;;;;;;10524903;28;20185;-73
2021/05/17 16:23:48;;;;;;;1.37;0.80;;;;;;;;;;10525253;28;20402;-73
2021/05/17 16:28:53;;;;;;;0.47;0.40;;;;;;;;;;10516572;28;20365;-73
2021/05/17 16:33:57;;;;;;;2.00;0.70;;;;;;;;;;10515801;28;20220;-73
2021/05/17 16:38:59;;;;;;;2.00;0.50;;;;;;;;;;10518694;28;20700;-72
2021/05/17 16:44:02;;;;;;;1.87;0.90;;;;;;;;;;10521674;28;20199;-73
2021/05/17 16:49:07;;;;;;;1.27;0.67;;;;;;;;;;10524674;28;20198;-73
2021/05/17 16:54:09;;;;;;;1.90;0.90;;;;;;;;;;10519648;28;20299;-70
2021/05/17 16:59:12;;;;;;;1.70;1.00;;;;;;;;;;10513327;28;20814;-71
2021/05/17 17:04:15;;;;;;;2.93;0.80;;;;;;;;;;10520910;28;20493;-72
2021/05/17 17:09:17;;;;;;;2.20;0.70;;;;;;;;;;10525237;28;20231;-73
2021/05/17 17:14:20;;;;;;;4.40;1.30;;;;;;;;;;10520836;28;20287;-72
2021/05/17 17:19:23;;;;;;;2.70;1.00;;;;;;;;;;10517514;28;21438;-71
2021/05/17 17:24:27;;;;;;;4.53;1.77;;;;;;;;;;10530151;28;20188;-72
2021/05/17 17:29:30;;;;;;;3.50;1.30;;;;;;;;;;10529333;28;20191;-73
2021/05/17 17:34:36;;;;;;;2.83;1.00;;;;;;;;;;10523835;28;20768;-73
2021/05/17 17:39:39;;;;;;;2.07;0.80;;;;;;;;;;10528101;28;20215;-71
2021/05/17 17:44:41;;;;;;;2.33;1.00;;;;;;;;;;10508691;28;20560;-73
2021/05/17 17:49:44;;;;;;;2.70;1.30;;;;;;;;;;10487824;28;20216;-73
2021/05/17 17:54:47;;;;;;;1.90;1.00;;;;;;;;;;10510957;28;20680;-71
2021/05/17 17:59:49;;;;;;;2.13;1.00;;;;;;;;;;10498470;28;20408;-74
2021/05/17 18:04:52;;;;;;;1.87;1.03;;;;;;;;;;10491395;28;20202;-72
2021/05/17 18:09:59;;;;;;;2.60;0.90;;;;;;;;;;10510333;28;20694;-72
2021/05/17 18:15:08;;;;;;;2.90;1.10;;;;;;;;;;10517176;28;20287;-75
2021/05/17 18:20:12;;;;;;;4.13;1.20;;;;;;;;;;10517640;28;20363;-72
2021/05/17 18:25:14;;;;;;;2.43;1.00;;;;;;;;;;10522145;28;20200;-73
2021/05/17 18:30:19;;;;;;;3.50;1.27;;;;;;;;;;10521368;28;20294;-71
2021/05/17 18:35:26;;;;;;;3.20;1.00;;;;;;;;;;10524513;28;20216;-73
2021/05/17 18:40:28;;;;;;;2.97;1.60;;;;;;;;;;10526251;28;20324;-72
2021/05/17 18:45:33;;;;;;;1.80;1.07;;;;;;;;;;10522649;28;20608;-70
2021/05/17 18:50:36;;;;;;;4.43;1.10;;;;;;;;;;10516635;28;20216;-72
2021/05/17 18:55:42;;;;;;;3.83;1.10;;;;;;;;;;10517689;28;20612;-72
2021/05/17 19:00:45;;;;;;;2.73;1.50;;;;;;;;;;10527275;28;20265;-74
2021/05/17 19:05:48;;;;;;;3.57;1.20;;;;;;;;;;10515741;28;20623;-73
2021/05/17 19:10:50;;;;;;;2.27;1.30;;;;;;;;;;10528776;28;20224;-73
2021/05/17 19:15:55;;;;;;;1.87;0.90;;;;;;;;;;10525783;28;20192;-72
2021/05/17 19:20:58;;;;;;;1.87;0.80;;;;;;;;;;10529984;28;20323;-71
2021/05/17 19:26:00;;;;;;;2.33;1.03;;;;;;;;;;10522301;28;20709;-73
2021/05/17 19:31:03;;;;;;;2.70;1.20;;;;;;;;;;10529193;28;20246;-72
2021/05/17 19:36:06;;;;;;;2.07;1.00;;;;;;;;;;10534688;28;20294;-72
2021/05/17 19:41:09;;;;;;;1.37;0.73;;;;;;;;;;10524327;28;20204;-73
2021/05/17 19:46:12;;;;;;;1.73;0.82;;;;;;;;;;10523717;28;20516;-72
2021/05/17 19:51:15;;;;;;;1.90;1.10;;;;;;;;;;10515459;28;20219;-73
2021/05/17 19:56:17;;;;;;;1.47;1.00;;;;;;;;;;10526352;28;20328;-73
2021/05/17 20:01:19;;;;;;;2.10;0.80;;;;;;;;;;10515331;28;20350;-72
2021/05/17 20:06:22;;;;;;;2.70;1.00;;;;;;;;;;10525371;28;20307;-72
2021/05/17 20:11:24;;;;;;;2.40;1.10;;;;;;;;;;10530118;28;20318;-70
2021/05/17 20:16:26;;;;;;;5.23;0.80;;;;;;;;;;10525902;28;20188;-71
2021/05/17 20:21:29;;;;;;;3.53;0.73;;;;;;;;;;10533759;28;20294;-70
2021/05/17 20:26:31;;;;;;;2.40;0.70;;;;;;;;;;10514535;28;20217;-72
2021/05/17 20:31:34;;;;;;;4.77;1.10;;;;;;;;;;10510710;28;20212;-73
2021/05/17 20:36:39;;;;;;;1.07;0.53;;;;;;;;;;10512121;28;20206;-73
2021/05/17 20:41:41;;;;;;;1.80;0.80;;;;;;;;;;10516454;28;20218;-73
2021/05/17 20:46:45;;;;;;;1.17;0.70;;;;;;;;;;10514813;28;20223;-74
2021/05/17 20:51:48;;;;;;;1.97;0.90;;;;;;;;;;10504479;28;20209;-74
2021/05/17 20:56:51;;;;;;;1.90;0.83;;;;;;;;;;10504367;28;20250;-75
2021/05/17 21:01:54;;;;;;;2.73;1.10;;;;;;;;;;10522635;28;20301;-73
2021/05/17 21:06:57;;;;;;;2.80;0.90;;;;;;;;;;10516037;28;20199;-74
2021/05/17 21:11:59;;;;;;;2.20;0.80;;;;;;;;;;10529936;28;20242;-74
2021/05/17 21:17:01;;;;;;;1.43;0.70;;;;;;;;;;10533126;28;20188;-74
2021/05/17 21:22:04;;;;;;;1.53;0.40;;;;;;;;;;10521970;28;20556;-74
2021/05/17 21:27:07;;;;;;;0.50;0.30;;;;;;;;;;10521673;28;20207;-75
2021/05/17 21:32:09;;;;;;;1.27;0.70;;;;;;;;;;10530830;28;20234;-73
2021/05/17 21:37:12;;;;;;;1.33;0.53;;;;;;;;;;10528459;28;20607;-75
2021/05/17 21:42:14;;;;;;;1.10;0.60;;;;;;;;;;10524589;28;20204;-74
2021/05/17 21:47:17;;;;;;;2.10;0.47;;;;;;;;;;10527669;28;20199;-73
2021/05/17 21:52:20;;;;;;;0.10;0.10;;;;;;;;;;10521612;28;20234;-74
2021/05/17 21:57:22;;;;;;;0.30;0.30;;;;;;;;;;10525417;28;20196;-74
2021/05/17 22:02:24;;;;;;;2.53;0.70;;;;;;;;;;10521868;28;20295;-73
2021/05/17 22:12:48;;;;;;;1.23;0.50;;;;;;;;;;10524347;28;20219;-73
2021/05/17 22:17:50;;;;;;;0.80;0.50;;;;;;;;;;10525653;28;20294;-73
2021/05/17 22:22:53;;;;;;;1.37;0.43;;;;;;;;;;10527905;28;20222;-74
2021/05/17 22:27:56;;;;;;;1.20;0.40;;;;;;;;;;10526621;28;20200;-75
2021/05/17 22:32:58;;;;;;;1.07;0.57;;;;;;;;;;10531566;28;20208;-74
2021/05/17 22:38:01;;;;;;;0.40;0.37;;;;;;;;;;10526011;28;20188;-73
2021/05/17 22:43:04;;;;;;;0.87;0.40;;;;;;;;;;10523351;28;20610;-73
2021/05/17 22:48:07;;;;;;;0.60;0.50;;;;;;;;;;10516983;28;20670;-74
2021/05/17 22:53:10;;;;;;;0.40;0.40;;;;;;;;;;10526325;28;20261;-73
2021/05/17 22:58:12;;;;;;;0.47;0.30;;;;;;;;;;10522955;28;20337;-73
2021/05/17 23:03:15;;;;;;;1.17;0.50;;;;;;;;;;10522203;28;20265;-74
2021/05/17 23:08:18;;;;;;;1.27;0.57;;;;;;;;;;10525487;28;20218;-74
2021/05/17 23:13:20;;;;;;;2.23;0.50;;;;;;;;;;10519641;28;20302;-74
2021/05/17 23:18:22;;;;;;;1.90;0.50;;;;;;;;;;10529826;28;20207;-74
2021/05/17 23:23:28;;;;;;;1.67;0.70;;;;;;;;;;10525524;28;20494;-75
2021/05/17 23:28:30;;;;;;;0.30;0.30;;;;;;;;;;10522150;28;20192;-74
2021/05/17 23:33:32;;;;;;;1.07;0.50;;;;;;;;;;10522476;28;20243;-74
2021/05/17 23:38:35;;;;;;;1.20;0.60;;;;;;;;;;10515001;28;20673;-75
2021/05/17 23:43:38;;;;;;;0.77;0.40;;;;;;;;;;10513896;28;22123;-74
2021/05/17 23:48:40;;;;;;;3.30;0.40;;;;;;;;;;10515784;28;20371;-74
2021/05/17 23:53:43;;;;;;;0.43;0.30;;;;;;;;;;10520727;28;20210;-74
2021/05/17 23:58:45;;;;;;;1.03;0.47;;;;;;;;;;10532872;28;20227;-73
